sensor_id;sensor_type;location;lat;lon;timestamp;temperature;humidity
69776;DHT22;57049;51.450;-2.516;2023-03-14T00:01:11;7.40;91.55
69776;DHT22;57049;51.450;-2.516;2023-03-14T00:03:37;7.28;92.07
69776;DHT22;57049;51.450;-2.516;2023-03-14T00:06:03;7.16;91.87
69776;DHT22;57049;51.450;-2.516;2023-03-14T00:08:29;7.14;90.94
69776;DHT22;57049;51.450;-2.516;2023-03-14T00:10:55;7.10;90.13
69776;DHT22;57049;51.450;-2.516;2023-03-14T00:13:20;7.03;90.49
69776;DHT22;57049;51.450;-2.516;2023-03-14T00:15:46;6.95;90.05
69776;DHT22;57049;51.450;-2.516;2023-03-14T00:18:11;6.92;90.02
69776;DHT22;57049;51.450;-2.516;2023-03-14T00:20:37;6.82;90.21
69776;DHT22;57049;51.450;-2.516;2023-03-14T00:23:02;6.82;90.69
69776;DHT22;57049;51.450;-2.516;2023-03-14T00:25:34;6.76;89.42
69776;DHT22;57049;51.450;-2.516;2023-03-14T00:27:59;6.68;88.99
69776;DHT22;57049;51.450;-2.516;2023-03-14T00:30:25;6.69;88.25
69776;DHT22;57049;51.450;-2.516;2023-03-14T00:32:51;6.61;87.01
69776;DHT22;57049;51.450;-2.516;2023-03-14T00:35:16;6.58;86.82
69776;DHT22;57049;51.450;-2.516;2023-03-14T00:37:42;6.48;86.00
69776;DHT22;57049;51.450;-2.516;2023-03-14T00:40:08;6.39;85.81
69776;DHT22;57049;51.450;-2.516;2023-03-14T00:42:34;6.37;85.64
69776;DHT22;57049;51.450;-2.516;2023-03-14T00:45:00;6.28;86.15
69776;DHT22;57049;51.450;-2.516;2023-03-14T00:47:25;6.22;85.25
69776;DHT22;57049;51.450;-2.516;2023-03-14T00:49:51;6.22;85.01
69776;DHT22;57049;51.450;-2.516;2023-03-14T00:52:16;6.27;84.59
69776;DHT22;57049;51.450;-2.516;2023-03-14T00:54:42;6.17;84.33
69776;DHT22;57049;51.450;-2.516;2023-03-14T00:57:07;6.14;84.77
69776;DHT22;57049;51.450;-2.516;2023-03-14T00:59:33;6.11;84.99
69776;DHT22;57049;51.450;-2.516;2023-03-14T01:01:58;6.03;84.55
69776;DHT22;57049;51.450;-2.516;2023-03-14T01:04:24;5.97;85.08
69776;DHT22;57049;51.450;-2.516;2023-03-14T01:06:49;5.96;84.92
69776;DHT22;57049;51.450;-2.516;2023-03-14T01:09:15;5.98;84.88
69776;DHT22;57049;51.450;-2.516;2023-03-14T01:11:43;6.00;83.92
69776;DHT22;57049;51.450;-2.516;2023-03-14T01:14:12;5.94;84.19
69776;DHT22;57049;51.450;-2.516;2023-03-14T01:16:38;5.90;85.29
69776;DHT22;57049;51.450;-2.516;2023-03-14T01:19:03;5.89;85.25
69776;DHT22;57049;51.450;-2.516;2023-03-14T01:21:34;5.81;85.28
69776;DHT22;57049;51.450;-2.516;2023-03-14T01:24:01;5.76;85.80
69776;DHT22;57049;51.450;-2.516;2023-03-14T01:26:30;5.70;86.94
69776;DHT22;57049;51.450;-2.516;2023-03-14T01:28:56;5.73;85.39
69776;DHT22;57049;51.450;-2.516;2023-03-14T01:31:23;5.71;84.64
69776;DHT22;57049;51.450;-2.516;2023-03-14T01:33:49;5.76;84.50
69776;DHT22;57049;51.450;-2.516;2023-03-14T01:36:15;5.67;85.68
69776;DHT22;57049;51.450;-2.516;2023-03-14T01:38:41;5.67;85.04
69776;DHT22;57049;51.450;-2.516;2023-03-14T01:41:08;5.67;83.52
69776;DHT22;57049;51.450;-2.516;2023-03-14T01:43:36;5.69;82.64
69776;DHT22;57049;51.450;-2.516;2023-03-14T01:48:42;5.67;81.27
69776;DHT22;57049;51.450;-2.516;2023-03-14T01:51:56;5.70;81.10
69776;DHT22;57049;51.450;-2.516;2023-03-14T01:54:06;5.71;80.47
69776;DHT22;57049;51.450;-2.516;2023-03-14T01:56:33;5.69;80.72
69776;DHT22;57049;51.450;-2.516;2023-03-14T01:59:01;5.65;81.76
69776;DHT22;57049;51.450;-2.516;2023-03-14T02:01:28;5.59;82.14
69776;DHT22;57049;51.450;-2.516;2023-03-14T02:03:57;5.55;82.67
69776;DHT22;57049;51.450;-2.516;2023-03-14T02:06:27;5.43;83.66
69776;DHT22;57049;51.450;-2.516;2023-03-14T02:08:54;5.40;84.33
69776;DHT22;57049;51.450;-2.516;2023-03-14T02:11:21;5.35;84.77
69776;DHT22;57049;51.450;-2.516;2023-03-14T02:13:47;5.24;85.61
69776;DHT22;57049;51.450;-2.516;2023-03-14T02:16:13;5.28;86.32
69776;DHT22;57049;51.450;-2.516;2023-03-14T02:18:40;5.25;86.71
69776;DHT22;57049;51.450;-2.516;2023-03-14T02:23:48;5.16;87.73
69776;DHT22;57049;51.450;-2.516;2023-03-14T02:26:31;5.11;87.88
69776;DHT22;57049;51.450;-2.516;2023-03-14T02:28:59;5.11;88.02
69776;DHT22;57049;51.450;-2.516;2023-03-14T02:31:25;5.12;87.29
69776;DHT22;57049;51.450;-2.516;2023-03-14T02:33:51;5.18;87.07
69776;DHT22;57049;51.450;-2.516;2023-03-14T02:36:19;5.14;87.12
69776;DHT22;57049;51.450;-2.516;2023-03-14T02:39:22;5.11;86.83
69776;DHT22;57049;51.450;-2.516;2023-03-14T02:41:49;5.15;86.21
69776;DHT22;57049;51.450;-2.516;2023-03-14T02:44:15;5.12;86.70
69776;DHT22;57049;51.450;-2.516;2023-03-14T02:46:41;5.09;87.06
69776;DHT22;57049;51.450;-2.516;2023-03-14T02:49:14;5.05;86.80
69776;DHT22;57049;51.450;-2.516;2023-03-14T02:51:40;5.02;86.83
69776;DHT22;57049;51.450;-2.516;2023-03-14T02:54:07;5.02;87.15
69776;DHT22;57049;51.450;-2.516;2023-03-14T02:56:32;5.11;86.75
69776;DHT22;57049;51.450;-2.516;2023-03-14T02:58:58;5.08;87.19
69776;DHT22;57049;51.450;-2.516;2023-03-14T03:01:24;5.02;87.23
69776;DHT22;57049;51.450;-2.516;2023-03-14T03:03:49;5.08;87.07
69776;DHT22;57049;51.450;-2.516;2023-03-14T03:06:15;5.04;87.33
69776;DHT22;57049;51.450;-2.516;2023-03-14T03:08:41;5.01;87.68
69776;DHT22;57049;51.450;-2.516;2023-03-14T03:11:07;4.98;87.71
69776;DHT22;57049;51.450;-2.516;2023-03-14T03:13:33;5.04;87.30
69776;DHT22;57049;51.450;-2.516;2023-03-14T03:15:58;5.09;87.52
69776;DHT22;57049;51.450;-2.516;2023-03-14T03:18:24;5.08;87.30
69776;DHT22;57049;51.450;-2.516;2023-03-14T03:20:49;5.14;87.30
69776;DHT22;57049;51.450;-2.516;2023-03-14T03:23:15;5.18;87.46
69776;DHT22;57049;51.450;-2.516;2023-03-14T03:25:41;5.21;87.19
69776;DHT22;57049;51.450;-2.516;2023-03-14T03:28:07;5.22;86.73
69776;DHT22;57049;51.450;-2.516;2023-03-14T03:30:40;5.15;86.86
69776;DHT22;57049;51.450;-2.516;2023-03-14T03:33:06;5.24;86.29
69776;DHT22;57049;51.450;-2.516;2023-03-14T03:35:32;5.28;86.43
69776;DHT22;57049;51.450;-2.516;2023-03-14T03:37:57;5.26;86.58
69776;DHT22;57049;51.450;-2.516;2023-03-14T03:40:23;5.32;86.36
69776;DHT22;57049;51.450;-2.516;2023-03-14T03:42:48;5.39;86.22
69776;DHT22;57049;51.450;-2.516;2023-03-14T03:45:14;5.38;86.11
69776;DHT22;57049;51.450;-2.516;2023-03-14T03:47:39;5.36;85.80
69776;DHT22;57049;51.450;-2.516;2023-03-14T03:50:05;5.38;86.81
69776;DHT22;57049;51.450;-2.516;2023-03-14T03:52:31;5.43;86.28
69776;DHT22;57049;51.450;-2.516;2023-03-14T03:54:56;5.46;85.92
69776;DHT22;57049;51.450;-2.516;2023-03-14T03:57:22;5.39;85.89
69776;DHT22;57049;51.450;-2.516;2023-03-14T03:59:47;5.43;85.87
69776;DHT22;57049;51.450;-2.516;2023-03-14T04:02:13;5.40;86.04
69776;DHT22;57049;51.450;-2.516;2023-03-14T04:04:38;5.39;85.47
69776;DHT22;57049;51.450;-2.516;2023-03-14T04:07:04;5.38;85.57
69776;DHT22;57049;51.450;-2.516;2023-03-14T04:09:30;5.36;86.00
69776;DHT22;57049;51.450;-2.516;2023-03-14T04:11:56;5.34;85.84
69776;DHT22;57049;51.450;-2.516;2023-03-14T04:14:22;5.28;86.02
69776;DHT22;57049;51.450;-2.516;2023-03-14T04:16:47;5.19;86.00
69776;DHT22;57049;51.450;-2.516;2023-03-14T04:19:13;5.12;86.63
69776;DHT22;57049;51.450;-2.516;2023-03-14T04:21:38;5.08;86.43
69776;DHT22;57049;51.450;-2.516;2023-03-14T04:24:09;5.02;86.50
69776;DHT22;57049;51.450;-2.516;2023-03-14T04:26:34;5.05;86.03
69776;DHT22;57049;51.450;-2.516;2023-03-14T04:28:59;5.04;86.17
69776;DHT22;57049;51.450;-2.516;2023-03-14T04:31:25;4.98;86.56
69776;DHT22;57049;51.450;-2.516;2023-03-14T04:33:51;4.91;86.52
69776;DHT22;57049;51.450;-2.516;2023-03-14T04:36:16;4.96;86.18
69776;DHT22;57049;51.450;-2.516;2023-03-14T04:38:45;5.01;86.09
69776;DHT22;57049;51.450;-2.516;2023-03-14T04:41:10;4.98;86.37
69776;DHT22;57049;51.450;-2.516;2023-03-14T04:43:36;4.96;86.62
69776;DHT22;57049;51.450;-2.516;2023-03-14T04:46:02;4.95;86.45
69776;DHT22;57049;51.450;-2.516;2023-03-14T04:48:28;4.98;86.02
69776;DHT22;57049;51.450;-2.516;2023-03-14T04:50:53;4.95;86.59
69776;DHT22;57049;51.450;-2.516;2023-03-14T04:53:19;4.98;86.69
69776;DHT22;57049;51.450;-2.516;2023-03-14T04:55:55;4.98;86.71
69776;DHT22;57049;51.450;-2.516;2023-03-14T04:58:21;4.96;87.09
69776;DHT22;57049;51.450;-2.516;2023-03-14T05:00:47;5.02;87.42
69776;DHT22;57049;51.450;-2.516;2023-03-14T05:03:17;4.94;87.69
69776;DHT22;57049;51.450;-2.516;2023-03-14T05:05:43;4.91;88.31
69776;DHT22;57049;51.450;-2.516;2023-03-14T05:08:09;4.87;88.15
69776;DHT22;57049;51.450;-2.516;2023-03-14T05:10:37;4.78;88.58
69776;DHT22;57049;51.450;-2.516;2023-03-14T05:13:03;4.73;88.74
69776;DHT22;57049;51.450;-2.516;2023-03-14T05:15:28;4.73;89.12
69776;DHT22;57049;51.450;-2.516;2023-03-14T05:17:54;4.64;89.52
69776;DHT22;57049;51.450;-2.516;2023-03-14T05:20:20;4.56;89.86
69776;DHT22;57049;51.450;-2.516;2023-03-14T05:22:46;4.50;90.37
69776;DHT22;57049;51.450;-2.516;2023-03-14T05:25:12;4.44;89.80
69776;DHT22;57049;51.450;-2.516;2023-03-14T05:27:37;4.50;89.64
69776;DHT22;57049;51.450;-2.516;2023-03-14T05:30:04;4.54;88.58
69776;DHT22;57049;51.450;-2.516;2023-03-14T05:32:30;4.60;88.92
69776;DHT22;57049;51.450;-2.516;2023-03-14T05:34:56;4.56;88.83
69776;DHT22;57049;51.450;-2.516;2023-03-14T05:37:25;4.47;89.31
69776;DHT22;57049;51.450;-2.516;2023-03-14T05:39:50;4.54;88.77
69776;DHT22;57049;51.450;-2.516;2023-03-14T05:42:16;4.47;88.98
69776;DHT22;57049;51.450;-2.516;2023-03-14T05:44:41;4.50;88.97
69776;DHT22;57049;51.450;-2.516;2023-03-14T05:47:07;4.47;88.79
69776;DHT22;57049;51.450;-2.516;2023-03-14T05:49:32;4.47;88.73
69776;DHT22;57049;51.450;-2.516;2023-03-14T05:51:58;4.44;88.68
69776;DHT22;57049;51.450;-2.516;2023-03-14T05:54:24;4.37;88.95
69776;DHT22;57049;51.450;-2.516;2023-03-14T05:56:49;4.36;88.98
69776;DHT22;57049;51.450;-2.516;2023-03-14T05:59:14;4.32;89.36
69776;DHT22;57049;51.450;-2.516;2023-03-14T06:01:40;4.32;89.36
69776;DHT22;57049;51.450;-2.516;2023-03-14T06:04:06;4.30;89.58
69776;DHT22;57049;51.450;-2.516;2023-03-14T06:06:31;4.29;89.44
69776;DHT22;57049;51.450;-2.516;2023-03-14T06:08:57;4.24;89.51
69776;DHT22;57049;51.450;-2.516;2023-03-14T06:11:22;4.20;89.89
69776;DHT22;57049;51.450;-2.516;2023-03-14T06:13:48;4.20;90.09
69776;DHT22;57049;51.450;-2.516;2023-03-14T06:16:13;4.14;90.26
69776;DHT22;57049;51.450;-2.516;2023-03-14T06:18:39;4.17;90.26
69776;DHT22;57049;51.450;-2.516;2023-03-14T06:21:05;4.24;90.34
69776;DHT22;57049;51.450;-2.516;2023-03-14T06:23:31;4.23;90.74
69776;DHT22;57049;51.450;-2.516;2023-03-14T06:25:57;4.34;90.61
69776;DHT22;57049;51.450;-2.516;2023-03-14T06:28:22;4.33;90.49
69776;DHT22;57049;51.450;-2.516;2023-03-14T06:30:48;4.36;91.04
69776;DHT22;57049;51.450;-2.516;2023-03-14T06:33:14;4.43;91.06
69776;DHT22;57049;51.450;-2.516;2023-03-14T06:35:39;4.44;90.92
69776;DHT22;57049;51.450;-2.516;2023-03-14T06:38:05;4.42;90.74
69776;DHT22;57049;51.450;-2.516;2023-03-14T06:40:30;4.44;90.67
69776;DHT22;57049;51.450;-2.516;2023-03-14T06:42:56;4.50;90.46
69776;DHT22;57049;51.450;-2.516;2023-03-14T06:45:21;4.54;90.26
69776;DHT22;57049;51.450;-2.516;2023-03-14T06:47:47;4.54;90.44
69776;DHT22;57049;51.450;-2.516;2023-03-14T06:50:13;4.52;90.36
69776;DHT22;57049;51.450;-2.516;2023-03-14T06:52:38;4.57;90.18
69776;DHT22;57049;51.450;-2.516;2023-03-14T06:55:11;4.54;90.11
69776;DHT22;57049;51.450;-2.516;2023-03-14T06:57:36;4.52;90.27
69776;DHT22;57049;51.450;-2.516;2023-03-14T07:00:03;4.53;90.11
69776;DHT22;57049;51.450;-2.516;2023-03-14T07:02:29;4.49;89.85
69776;DHT22;57049;51.450;-2.516;2023-03-14T07:04:54;4.43;90.04
69776;DHT22;57049;51.450;-2.516;2023-03-14T07:07:20;4.54;89.71
69776;DHT22;57049;51.450;-2.516;2023-03-14T07:09:45;4.56;89.41
69776;DHT22;57049;51.450;-2.516;2023-03-14T07:12:11;4.57;89.62
69776;DHT22;57049;51.450;-2.516;2023-03-14T07:14:36;4.57;89.72
69776;DHT22;57049;51.450;-2.516;2023-03-14T07:17:02;4.58;89.94
69776;DHT22;57049;51.450;-2.516;2023-03-14T07:19:27;4.64;89.37
69776;DHT22;57049;51.450;-2.516;2023-03-14T07:21:53;4.67;89.32
69776;DHT22;57049;51.450;-2.516;2023-03-14T07:24:18;4.68;89.36
69776;DHT22;57049;51.450;-2.516;2023-03-14T07:26:44;4.63;89.41
69776;DHT22;57049;51.450;-2.516;2023-03-14T07:29:09;4.54;89.86
69776;DHT22;57049;51.450;-2.516;2023-03-14T07:31:35;4.57;89.29
69776;DHT22;57049;51.450;-2.516;2023-03-14T07:34:00;4.56;89.60
69776;DHT22;57049;51.450;-2.516;2023-03-14T07:36:26;4.57;89.73
69776;DHT22;57049;51.450;-2.516;2023-03-14T07:38:51;4.60;89.51
69776;DHT22;57049;51.450;-2.516;2023-03-14T07:41:18;4.68;89.35
69776;DHT22;57049;51.450;-2.516;2023-03-14T07:43:43;4.73;89.09
69776;DHT22;57049;51.450;-2.516;2023-03-14T07:46:09;4.80;89.27
69776;DHT22;57049;51.450;-2.516;2023-03-14T07:48:35;4.91;88.67
69776;DHT22;57049;51.450;-2.516;2023-03-14T07:51:00;4.85;88.73
69776;DHT22;57049;51.450;-2.516;2023-03-14T07:53:26;4.89;89.23
69776;DHT22;57049;51.450;-2.516;2023-03-14T07:55:52;4.98;88.93
69776;DHT22;57049;51.450;-2.516;2023-03-14T07:58:19;5.08;88.41
69776;DHT22;57049;51.450;-2.516;2023-03-14T08:00:45;5.16;88.52
69776;DHT22;57049;51.450;-2.516;2023-03-14T08:03:10;5.26;87.96
69776;DHT22;57049;51.450;-2.516;2023-03-14T08:05:38;5.24;87.91
69776;DHT22;57049;51.450;-2.516;2023-03-14T08:08:04;5.29;87.73
69776;DHT22;57049;51.450;-2.516;2023-03-14T08:10:30;5.31;87.74
69776;DHT22;57049;51.450;-2.516;2023-03-14T08:12:57;5.43;87.48
69776;DHT22;57049;51.450;-2.516;2023-03-14T08:15:24;5.40;86.54
69776;DHT22;57049;51.450;-2.516;2023-03-14T08:17:50;5.46;86.50
69776;DHT22;57049;51.450;-2.516;2023-03-14T08:20:25;5.45;86.54
69776;DHT22;57049;51.450;-2.516;2023-03-14T08:22:51;5.46;86.80
69776;DHT22;57049;51.450;-2.516;2023-03-14T08:25:17;5.40;86.64
69776;DHT22;57049;51.450;-2.516;2023-03-14T08:27:43;5.46;87.02
69776;DHT22;57049;51.450;-2.516;2023-03-14T08:30:11;5.53;86.23
69776;DHT22;57049;51.450;-2.516;2023-03-14T08:32:37;5.52;85.66
69776;DHT22;57049;51.450;-2.516;2023-03-14T08:35:05;5.56;85.93
69776;DHT22;57049;51.450;-2.516;2023-03-14T08:37:32;5.53;85.91
69776;DHT22;57049;51.450;-2.516;2023-03-14T08:39:57;5.69;86.58
69776;DHT22;57049;51.450;-2.516;2023-03-14T08:42:23;5.76;86.59
69776;DHT22;57049;51.450;-2.516;2023-03-14T08:44:51;5.94;86.54
69776;DHT22;57049;51.450;-2.516;2023-03-14T08:47:16;6.10;87.28
69776;DHT22;57049;51.450;-2.516;2023-03-14T08:49:42;6.27;86.33
69776;DHT22;57049;51.450;-2.516;2023-03-14T08:52:07;6.34;85.43
69776;DHT22;57049;51.450;-2.516;2023-03-14T08:54:33;6.01;83.92
69776;DHT22;57049;51.450;-2.516;2023-03-14T08:56:58;6.11;84.63
69776;DHT22;57049;51.450;-2.516;2023-03-14T08:59:24;5.98;84.70
69776;DHT22;57049;51.450;-2.516;2023-03-14T09:01:49;5.76;85.91
69776;DHT22;57049;51.450;-2.516;2023-03-14T09:04:15;5.77;86.19
69776;DHT22;57049;51.450;-2.516;2023-03-14T09:06:41;5.80;86.36
69776;DHT22;57049;51.450;-2.516;2023-03-14T09:09:06;5.65;87.24
69776;DHT22;57049;51.450;-2.516;2023-03-14T09:11:32;5.93;88.33
69776;DHT22;57049;51.450;-2.516;2023-03-14T09:13:58;5.85;87.28
69776;DHT22;57049;51.450;-2.516;2023-03-14T09:16:24;6.03;87.29
69776;DHT22;57049;51.450;-2.516;2023-03-14T09:18:49;6.55;87.06
69776;DHT22;57049;51.450;-2.516;2023-03-14T09:21:15;6.79;85.83
69776;DHT22;57049;51.450;-2.516;2023-03-14T09:23:41;6.80;85.63
69776;DHT22;57049;51.450;-2.516;2023-03-14T09:26:07;6.48;83.07
69776;DHT22;57049;51.450;-2.516;2023-03-14T09:28:32;6.11;84.21
69776;DHT22;57049;51.450;-2.516;2023-03-14T09:31:05;6.07;85.57
69776;DHT22;57049;51.450;-2.516;2023-03-14T09:33:30;5.81;84.90
69776;DHT22;57049;51.450;-2.516;2023-03-14T09:35:58;5.76;84.97
69776;DHT22;57049;51.450;-2.516;2023-03-14T09:38:25;5.87;84.88
69776;DHT22;57049;51.450;-2.516;2023-03-14T09:40:51;5.86;85.03
69776;DHT22;57049;51.450;-2.516;2023-03-14T09:43:19;5.81;84.10
69776;DHT22;57049;51.450;-2.516;2023-03-14T09:45:46;5.83;84.28
69776;DHT22;57049;51.450;-2.516;2023-03-14T09:48:20;6.10;83.78
69776;DHT22;57049;51.450;-2.516;2023-03-14T09:50:51;6.10;84.95
69776;DHT22;57049;51.450;-2.516;2023-03-14T09:53:20;6.14;83.99
69776;DHT22;57049;51.450;-2.516;2023-03-14T09:55:49;6.10;83.43
69776;DHT22;57049;51.450;-2.516;2023-03-14T09:58:20;6.10;83.76
69776;DHT22;57049;51.450;-2.516;2023-03-14T10:00:46;6.13;83.50
69776;DHT22;57049;51.450;-2.516;2023-03-14T10:05:37;6.18;82.32
69776;DHT22;57049;51.450;-2.516;2023-03-14T10:08:03;6.34;82.99
69776;DHT22;57049;51.450;-2.516;2023-03-14T10:10:30;6.71;81.90
69776;DHT22;57049;51.450;-2.516;2023-03-14T10:12:57;6.78;80.99
69776;DHT22;57049;51.450;-2.516;2023-03-14T10:15:26;7.06;81.11
69776;DHT22;57049;51.450;-2.516;2023-03-14T10:17:53;7.04;80.29
69776;DHT22;57049;51.450;-2.516;2023-03-14T10:22:58;7.14;80.56
69776;DHT22;57049;51.450;-2.516;2023-03-14T10:25:29;7.00;78.89
69776;DHT22;57049;51.450;-2.516;2023-03-14T10:27:55;6.80;78.85
69776;DHT22;57049;51.450;-2.516;2023-03-14T10:30:46;6.79;79.76
69776;DHT22;57049;51.450;-2.516;2023-03-14T10:33:30;6.56;80.78
69776;DHT22;57049;51.450;-2.516;2023-03-14T10:38:42;6.88;81.56
69776;DHT22;57049;51.450;-2.516;2023-03-14T10:41:20;6.85;80.24
69776;DHT22;57049;51.450;-2.516;2023-03-14T10:43:54;7.23;80.45
69776;DHT22;57049;51.450;-2.516;2023-03-14T10:46:24;7.24;78.20
69776;DHT22;57049;51.450;-2.516;2023-03-14T10:48:51;7.40;78.55
69776;DHT22;57049;51.450;-2.516;2023-03-14T10:51:29;7.27;77.36
69776;DHT22;57049;51.450;-2.516;2023-03-14T10:54:20;7.17;78.90
69776;DHT22;57049;51.450;-2.516;2023-03-14T10:56:59;7.13;78.20
69776;DHT22;57049;51.450;-2.516;2023-03-14T10:59:28;7.12;77.30
69776;DHT22;57049;51.450;-2.516;2023-03-14T11:07:47;7.63;75.41
69776;DHT22;57049;51.450;-2.516;2023-03-14T11:10:32;7.51;74.85
69776;DHT22;57049;51.450;-2.516;2023-03-14T11:16:06;7.50;74.98
69776;DHT22;57049;51.450;-2.516;2023-03-14T11:21:11;7.71;75.40
69776;DHT22;57049;51.450;-2.516;2023-03-14T11:27:16;7.60;75.92
69776;DHT22;57049;51.450;-2.516;2023-03-14T11:29:55;7.65;74.13
69776;DHT22;57049;51.450;-2.516;2023-03-14T11:35:34;7.77;72.03
69776;DHT22;57049;51.450;-2.516;2023-03-14T11:38:11;7.94;72.80
69776;DHT22;57049;51.450;-2.516;2023-03-14T11:40:38;7.89;71.49
69776;DHT22;57049;51.450;-2.516;2023-03-14T11:45:49;8.13;70.93
69776;DHT22;57049;51.450;-2.516;2023-03-14T11:48:39;8.02;67.32
69776;DHT22;57049;51.450;-2.516;2023-03-14T11:51:18;8.22;67.90
69776;DHT22;57049;51.450;-2.516;2023-03-14T11:54:55;7.96;67.73
69776;DHT22;57049;51.450;-2.516;2023-03-14T11:57:17;8.05;69.82
69776;DHT22;57049;51.450;-2.516;2023-03-14T12:02:39;8.12;69.19
69776;DHT22;57049;51.450;-2.516;2023-03-14T12:08:43;8.64;71.53
69776;DHT22;57049;51.450;-2.516;2023-03-14T12:11:18;8.85;69.30
69776;DHT22;57049;51.450;-2.516;2023-03-14T12:13:50;9.03;68.85
69776;DHT22;57049;51.450;-2.516;2023-03-14T12:18:51;8.66;68.45
69776;DHT22;57049;51.450;-2.516;2023-03-14T12:21:17;8.73;70.23
69776;DHT22;57049;51.450;-2.516;2023-03-14T12:23:48;8.59;67.96
69776;DHT22;57049;51.450;-2.516;2023-03-14T12:26:17;8.61;67.53
69776;DHT22;57049;51.450;-2.516;2023-03-14T12:28:52;8.67;65.91
69776;DHT22;57049;51.450;-2.516;2023-03-14T12:37:01;9.22;66.60
69776;DHT22;57049;51.450;-2.516;2023-03-14T12:44:51;9.69;65.19
69776;DHT22;57049;51.450;-2.516;2023-03-14T12:49:42;9.70;64.32
69776;DHT22;57049;51.450;-2.516;2023-03-14T12:52:41;9.75;63.19
69776;DHT22;57049;51.450;-2.516;2023-03-14T12:55:20;9.52;62.26
69776;DHT22;57049;51.450;-2.516;2023-03-14T13:00:23;9.50;62.09
69776;DHT22;57049;51.450;-2.516;2023-03-14T13:05:56;9.78;58.70
69776;DHT22;57049;51.450;-2.516;2023-03-14T13:08:38;10.09;61.34
69776;DHT22;57049;51.450;-2.516;2023-03-14T13:11:15;10.00;57.74
69776;DHT22;57049;51.450;-2.516;2023-03-14T13:14:02;9.90;58.31
69776;DHT22;57049;51.450;-2.516;2023-03-14T13:16:35;10.14;59.51
69776;DHT22;57049;51.450;-2.516;2023-03-14T13:19:15;10.34;61.03
69776;DHT22;57049;51.450;-2.516;2023-03-14T13:21:43;10.09;60.29
69776;DHT22;57049;51.450;-2.516;2023-03-14T13:24:25;10.40;58.89
69776;DHT22;57049;51.450;-2.516;2023-03-14T13:26:54;10.52;59.04
69776;DHT22;57049;51.450;-2.516;2023-03-14T13:29:25;10.48;59.41
69776;DHT22;57049;51.450;-2.516;2023-03-14T13:31:54;10.74;59.41
69776;DHT22;57049;51.450;-2.516;2023-03-14T13:34:20;10.98;58.48
69776;DHT22;57049;51.450;-2.516;2023-03-14T13:36:46;10.98;57.84
69776;DHT22;57049;51.450;-2.516;2023-03-14T13:39:18;11.23;59.45
69776;DHT22;57049;51.450;-2.516;2023-03-14T13:41:46;11.43;58.52
69776;DHT22;57049;51.450;-2.516;2023-03-14T13:44:18;11.53;56.53
69776;DHT22;57049;51.450;-2.516;2023-03-14T13:46:46;11.15;56.80
69776;DHT22;57049;51.450;-2.516;2023-03-14T13:49:24;11.29;57.86
69776;DHT22;57049;51.450;-2.516;2023-03-14T13:51:50;11.15;56.79
69776;DHT22;57049;51.450;-2.516;2023-03-14T13:54:21;11.05;56.98
69776;DHT22;57049;51.450;-2.516;2023-03-14T13:56:47;11.03;55.27
69776;DHT22;57049;51.450;-2.516;2023-03-14T13:59:40;11.32;56.15
69776;DHT22;57049;51.450;-2.516;2023-03-14T14:02:15;10.89;55.15
69776;DHT22;57049;51.450;-2.516;2023-03-14T14:04:40;10.30;55.20
69776;DHT22;57049;51.450;-2.516;2023-03-14T14:07:13;10.37;58.35
69776;DHT22;57049;51.450;-2.516;2023-03-14T14:09:47;10.75;58.75
69776;DHT22;57049;51.450;-2.516;2023-03-14T14:20:02;11.49;63.29
69776;DHT22;57049;51.450;-2.516;2023-03-14T14:22:30;11.53;63.39
69776;DHT22;57049;51.450;-2.516;2023-03-14T14:24:57;11.53;63.22
69776;DHT22;57049;51.450;-2.516;2023-03-14T14:27:41;11.32;62.32
69776;DHT22;57049;51.450;-2.516;2023-03-14T14:32:42;11.52;62.53
69776;DHT22;57049;51.450;-2.516;2023-03-14T14:35:11;11.62;62.17
69776;DHT22;57049;51.450;-2.516;2023-03-14T14:37:47;11.59;60.29
69776;DHT22;57049;51.450;-2.516;2023-03-14T14:40:20;11.50;60.59
69776;DHT22;57049;51.450;-2.516;2023-03-14T14:42:47;11.67;60.21
69776;DHT22;57049;51.450;-2.516;2023-03-14T14:45:18;11.57;56.47
69776;DHT22;57049;51.450;-2.516;2023-03-14T14:50:31;11.33;61.42
69776;DHT22;57049;51.450;-2.516;2023-03-14T14:53:00;11.60;63.01
69776;DHT22;57049;51.450;-2.516;2023-03-14T14:55:32;11.73;65.14
69776;DHT22;57049;51.450;-2.516;2023-03-14T14:58:17;11.70;66.18
69776;DHT22;57049;51.450;-2.516;2023-03-14T15:00:54;11.42;66.94
69776;DHT22;57049;51.450;-2.516;2023-03-14T15:03:20;10.94;68.06
69776;DHT22;57049;51.450;-2.516;2023-03-14T15:05:46;10.62;68.89
69776;DHT22;57049;51.450;-2.516;2023-03-14T15:08:11;10.50;69.47
69776;DHT22;57049;51.450;-2.516;2023-03-14T15:10:37;10.44;69.61
69776;DHT22;57049;51.450;-2.516;2023-03-14T15:13:03;10.57;69.53
69776;DHT22;57049;51.450;-2.516;2023-03-14T15:15:28;10.44;69.03
69776;DHT22;57049;51.450;-2.516;2023-03-14T15:17:54;10.41;67.82
69776;DHT22;57049;51.450;-2.516;2023-03-14T15:20:22;10.41;66.58
69776;DHT22;57049;51.450;-2.516;2023-03-14T15:22:49;10.37;65.20
69776;DHT22;57049;51.450;-2.516;2023-03-14T15:25:15;9.94;62.86
69776;DHT22;57049;51.450;-2.516;2023-03-14T15:27:41;10.00;64.46
69776;DHT22;57049;51.450;-2.516;2023-03-14T15:30:15;10.09;62.85
69776;DHT22;57049;51.450;-2.516;2023-03-14T15:32:40;10.04;60.12
69776;DHT22;57049;51.450;-2.516;2023-03-14T15:35:06;10.04;60.07
69776;DHT22;57049;51.450;-2.516;2023-03-14T15:37:33;9.85;59.18
69776;DHT22;57049;51.450;-2.516;2023-03-14T15:39:59;9.65;59.63
69776;DHT22;57049;51.450;-2.516;2023-03-14T15:42:24;9.80;61.36
69776;DHT22;57049;51.450;-2.516;2023-03-14T15:44:50;9.79;61.59
69776;DHT22;57049;51.450;-2.516;2023-03-14T15:47:16;9.62;62.92
69776;DHT22;57049;51.450;-2.516;2023-03-14T15:49:44;9.56;63.69
69776;DHT22;57049;51.450;-2.516;2023-03-14T15:52:10;9.56;64.25
69776;DHT22;57049;51.450;-2.516;2023-03-14T15:54:36;9.41;65.33
69776;DHT22;57049;51.450;-2.516;2023-03-14T15:57:01;9.24;65.77
69776;DHT22;57049;51.450;-2.516;2023-03-14T15:59:33;9.22;65.80
69776;DHT22;57049;51.450;-2.516;2023-03-14T16:01:58;9.07;67.04
69776;DHT22;57049;51.450;-2.516;2023-03-14T16:04:24;9.07;67.39
69776;DHT22;57049;51.450;-2.516;2023-03-14T16:06:49;8.88;68.51
69776;DHT22;57049;51.450;-2.516;2023-03-14T16:09:15;8.84;67.05
69776;DHT22;57049;51.450;-2.516;2023-03-14T16:11:40;8.80;67.97
69776;DHT22;57049;51.450;-2.516;2023-03-14T16:14:06;8.74;68.83
69776;DHT22;57049;51.450;-2.516;2023-03-14T16:16:32;8.74;68.88
69776;DHT22;57049;51.450;-2.516;2023-03-14T16:18:58;8.64;68.42
69776;DHT22;57049;51.450;-2.516;2023-03-14T16:21:23;8.52;68.68
69776;DHT22;57049;51.450;-2.516;2023-03-14T16:23:49;8.33;69.07
69776;DHT22;57049;51.450;-2.516;2023-03-14T16:26:17;8.25;67.75
69776;DHT22;57049;51.450;-2.516;2023-03-14T16:28:44;8.32;67.35
69776;DHT22;57049;51.450;-2.516;2023-03-14T16:31:13;8.35;66.13
69776;DHT22;57049;51.450;-2.516;2023-03-14T16:33:43;8.32;65.26
69776;DHT22;57049;51.450;-2.516;2023-03-14T16:36:10;8.28;64.09
69776;DHT22;57049;51.450;-2.516;2023-03-14T16:38:38;8.24;63.22
69776;DHT22;57049;51.450;-2.516;2023-03-14T16:43:32;8.15;62.03
69776;DHT22;57049;51.450;-2.516;2023-03-14T16:46:10;8.09;61.72
69776;DHT22;57049;51.450;-2.516;2023-03-14T16:48:35;8.10;62.49
69776;DHT22;57049;51.450;-2.516;2023-03-14T16:51:02;8.05;63.00
69776;DHT22;57049;51.450;-2.516;2023-03-14T16:53:30;8.01;63.47